sensor_id;sensor_type;location;lat;lon;timestamp;pressure;altitude;pressure_sealevel;temperature
20092;BMP180;10205;49.678;6.560;2023-03-01T00:01:11;100968.00;;;5.70
20092;BMP180;10205;49.678;6.560;2023-03-01T00:03:38;100972.00;;;5.70
20092;BMP180;10205;49.678;6.560;2023-03-01T00:06:06;100975.00;;;5.70
20092;BMP180;10205;49.678;6.560;2023-03-01T00:08:36;100970.00;;;5.70
20092;BMP180;10205;49.678;6.560;2023-03-01T00:11:07;100975.00;;;5.70
20092;BMP180;10205;49.678;6.560;2023-03-01T00:13:35;100975.00;;;5.60
20092;BMP180;10205;49.678;6.560;2023-03-01T00:16:03;100978.00;;;5.60
20092;BMP180;10205;49.678;6.560;2023-03-01T00:18:30;100974.00;;;5.60
20092;BMP180;10205;49.678;6.560;2023-03-01T00:20:58;100969.00;;;5.60
20092;BMP180;10205;49.678;6.560;2023-03-01T00:23:26;100969.00;;;5.60
20092;BMP180;10205;49.678;6.560;2023-03-01T00:25:55;100984.00;;;5.60
20092;BMP180;10205;49.678;6.560;2023-03-01T03:05:22;100867.00;;;3.60
20092;BMP180;10205;49.678;6.560;2023-03-01T03:07:50;100875.00;;;3.60
20092;BMP180;10205;49.678;6.560;2023-03-01T03:10:21;100872.00;;;3.60
20092;BMP180;10205;49.678;6.560;2023-03-01T03:12:51;100860.00;;;3.70
20092;BMP180;10205;49.678;6.560;2023-03-01T03:15:19;100861.00;;;3.70
20092;BMP180;10205;49.678;6.560;2023-03-01T03:17:47;100861.00;;;3.70
20092;BMP180;10205;49.678;6.560;2023-03-01T03:20:19;100858.00;;;3.70
20092;BMP180;10205;49.678;6.560;2023-03-01T03:22:49;100857.00;;;3.70
20092;BMP180;10205;49.678;6.560;2023-03-01T03:25:18;100856.00;;;3.70
20092;BMP180;10205;49.678;6.560;2023-03-01T03:27:50;100847.00;;;3.70
20092;BMP180;10205;49.678;6.560;2023-03-01T03:30:24;100844.00;;;3.70
20092;BMP180;10205;49.678;6.560;2023-03-01T03:32:51;100834.00;;;3.70
20092;BMP180;10205;49.678;6.560;2023-03-01T03:35:22;100831.00;;;3.60
20092;BMP180;10205;49.678;6.560;2023-03-01T03:37:51;100835.00;;;3.60
20092;BMP180;10205;49.678;6.560;2023-03-01T03:40:44;100819.00;;;3.60
20092;BMP180;10205;49.678;6.560;2023-03-01T03:43:13;100827.00;;;3.60
20092;BMP180;10205;49.678;6.560;2023-03-01T03:45:41;100825.00;;;3.60
20092;BMP180;10205;49.678;6.560;2023-03-01T03:48:09;100828.00;;;3.50
20092;BMP180;10205;49.678;6.560;2023-03-01T03:50:41;100838.00;;;3.50
20092;BMP180;10205;49.678;6.560;2023-03-01T03:53:11;100813.00;;;3.50
20092;BMP180;10205;49.678;6.560;2023-03-01T03:55:39;100815.00;;;3.50
20092;BMP180;10205;49.678;6.560;2023-03-01T03:58:10;100812.00;;;3.50
20092;BMP180;10205;49.678;6.560;2023-03-01T04:00:41;100813.00;;;3.50
20092;BMP180;10205;49.678;6.560;2023-03-01T04:03:10;100807.00;;;3.50
20092;BMP180;10205;49.678;6.560;2023-03-01T04:05:40;100799.00;;;3.50
20092;BMP180;10205;49.678;6.560;2023-03-01T04:08:08;100809.00;;;3.40
20092;BMP180;10205;49.678;6.560;2023-03-01T04:10:37;100812.00;;;3.40
20092;BMP180;10205;49.678;6.560;2023-03-01T04:13:06;100815.00;;;3.40
20092;BMP180;10205;49.678;6.560;2023-03-01T04:15:34;100801.00;;;3.40
20092;BMP180;10205;49.678;6.560;2023-03-01T04:18:02;100800.00;;;3.40
20092;BMP180;10205;49.678;6.560;2023-03-01T04:20:32;100798.00;;;3.40
20092;BMP180;10205;49.678;6.560;2023-03-01T04:23:07;100819.00;;;3.40
20092;BMP180;10205;49.678;6.560;2023-03-01T04:25:40;100804.00;;;3.40
20092;BMP180;10205;49.678;6.560;2023-03-01T04:28:08;100811.00;;;3.40
20092;BMP180;10205;49.678;6.560;2023-03-01T04:30:36;100812.00;;;3.40
20092;BMP180;10205;49.678;6.560;2023-03-01T04:33:05;100806.00;;;3.40
20092;BMP180;10205;49.678;6.560;2023-03-01T04:35:34;100804.00;;;3.40
20092;BMP180;10205;49.678;6.560;2023-03-01T04:38:04;100800.00;;;3.40
20092;BMP180;10205;49.678;6.560;2023-03-01T04:40:32;100798.00;;;3.30
20092;BMP180;10205;49.678;6.560;2023-03-01T04:43:03;100800.00;;;3.30
20092;BMP180;10205;49.678;6.560;2023-03-01T04:45:33;100804.00;;;3.30
20092;BMP180;10205;49.678;6.560;2023-03-01T04:48:01;100804.00;;;3.30
20092;BMP180;10205;49.678;6.560;2023-03-01T04:50:28;100796.00;;;3.30
20092;BMP180;10205;49.678;6.560;2023-03-01T04:52:56;100796.00;;;3.30
20092;BMP180;10205;49.678;6.560;2023-03-01T04:55:29;100784.00;;;3.30
20092;BMP180;10205;49.678;6.560;2023-03-01T04:57:57;100799.00;;;3.30
20092;BMP180;10205;49.678;6.560;2023-03-01T05:00:24;100797.00;;;3.30
20092;BMP180;10205;49.678;6.560;2023-03-01T05:02:54;100794.00;;;3.30
20092;BMP180;10205;49.678;6.560;2023-03-01T05:05:25;100789.00;;;3.30
20092;BMP180;10205;49.678;6.560;2023-03-01T05:07:55;100814.00;;;3.30
20092;BMP180;10205;49.678;6.560;2023-03-01T05:10:23;100793.00;;;3.30
20092;BMP180;10205;49.678;6.560;2023-03-01T05:12:52;100789.00;;;3.30
20092;BMP180;10205;49.678;6.560;2023-03-01T05:15:19;100798.00;;;3.30
20092;BMP180;10205;49.678;6.560;2023-03-01T05:17:49;100805.00;;;3.30
20092;BMP180;10205;49.678;6.560;2023-03-01T05:20:16;100782.00;;;3.30
20092;BMP180;10205;49.678;6.560;2023-03-01T05:22:43;100788.00;;;3.30
20092;BMP180;10205;49.678;6.560;2023-03-01T05:25:11;100784.00;;;3.30
20092;BMP180;10205;49.678;6.560;2023-03-01T05:27:39;100788.00;;;3.30
20092;BMP180;10205;49.678;6.560;2023-03-01T05:30:10;100784.00;;;3.30
20092;BMP180;10205;49.678;6.560;2023-03-01T05:32:45;100785.00;;;3.30
20092;BMP180;10205;49.678;6.560;2023-03-01T05:35:15;100768.00;;;3.30
20092;BMP180;10205;49.678;6.560;2023-03-01T05:37:44;100771.00;;;3.30
20092;BMP180;10205;49.678;6.560;2023-03-01T05:40:15;100761.00;;;3.30
20092;BMP180;10205;49.678;6.560;2023-03-01T05:42:47;100773.00;;;3.30
20092;BMP180;10205;49.678;6.560;2023-03-01T05:45:17;100768.00;;;3.30
20092;BMP180;10205;49.678;6.560;2023-03-01T05:47:46;100770.00;;;3.30
20092;BMP180;10205;49.678;6.560;2023-03-01T05:50:17;100768.00;;;3.30
20092;BMP180;10205;49.678;6.560;2023-03-01T05:52:47;100783.00;;;3.30
20092;BMP180;10205;49.678;6.560;2023-03-01T05:55:17;100770.00;;;3.30
20092;BMP180;10205;49.678;6.560;2023-03-01T05:57:45;100777.00;;;3.30
20092;BMP180;10205;49.678;6.560;2023-03-01T06:00:20;100768.00;;;3.30
20092;BMP180;10205;49.678;6.560;2023-03-01T06:02:49;100771.00;;;3.30
20092;BMP180;10205;49.678;6.560;2023-03-01T06:05:18;100786.00;;;3.30
20092;BMP180;10205;49.678;6.560;2023-03-01T06:07:45;100782.00;;;3.30
20092;BMP180;10205;49.678;6.560;2023-03-01T06:10:13;100780.00;;;3.40
20092;BMP180;10205;49.678;6.560;2023-03-01T06:12:41;100783.00;;;3.40
20092;BMP180;10205;49.678;6.560;2023-03-01T06:15:11;100783.00;;;3.40
20092;BMP180;10205;49.678;6.560;2023-03-01T06:17:43;100785.00;;;3.40
20092;BMP180;10205;49.678;6.560;2023-03-01T06:20:18;100788.00;;;3.30
20092;BMP180;10205;49.678;6.560;2023-03-01T06:22:46;100782.00;;;3.30
20092;BMP180;10205;49.678;6.560;2023-03-01T06:25:16;100790.00;;;3.30
20092;BMP180;10205;49.678;6.560;2023-03-01T06:27:44;100787.00;;;3.30
20092;BMP180;10205;49.678;6.560;2023-03-01T06:30:14;100794.00;;;3.30
20092;BMP180;10205;49.678;6.560;2023-03-01T06:32:44;100794.00;;;3.30
20092;BMP180;10205;49.678;6.560;2023-03-01T06:35:14;100792.00;;;3.20
20092;BMP180;10205;49.678;6.560;2023-03-01T06:37:43;100786.00;;;3.20
20092;BMP180;10205;49.678;6.560;2023-03-01T06:40:11;100792.00;;;3.20
20092;BMP180;10205;49.678;6.560;2023-03-01T06:42:42;100793.00;;;3.20
20092;BMP180;10205;49.678;6.560;2023-03-01T06:45:11;100791.00;;;3.20
20092;BMP180;10205;49.678;6.560;2023-03-01T06:47:38;100803.00;;;3.10
20092;BMP180;10205;49.678;6.560;2023-03-01T06:50:09;100790.00;;;3.10
20092;BMP180;10205;49.678;6.560;2023-03-01T06:52:36;100787.00;;;3.10
20092;BMP180;10205;49.678;6.560;2023-03-01T06:55:05;100783.00;;;3.10
20092;BMP180;10205;49.678;6.560;2023-03-01T06:57:32;100789.00;;;3.10
20092;BMP180;10205;49.678;6.560;2023-03-01T06:59:59;100805.00;;;3.10
20092;BMP180;10205;49.678;6.560;2023-03-01T07:02:27;100790.00;;;3.10
20092;BMP180;10205;49.678;6.560;2023-03-01T07:04:54;100778.00;;;3.10
20092;BMP180;10205;49.678;6.560;2023-03-01T07:07:24;100782.00;;;3.10
20092;BMP180;10205;49.678;6.560;2023-03-01T07:09:51;100792.00;;;3.10
20092;BMP180;10205;49.678;6.560;2023-03-01T07:12:18;100772.00;;;3.10
20092;BMP180;10205;49.678;6.560;2023-03-01T07:14:45;100766.00;;;3.10
20092;BMP180;10205;49.678;6.560;2023-03-01T07:17:12;100775.00;;;3.10
20092;BMP180;10205;49.678;6.560;2023-03-01T07:19:39;100758.00;;;3.10
20092;BMP180;10205;49.678;6.560;2023-03-01T07:22:06;100762.00;;;3.10
20092;BMP180;10205;49.678;6.560;2023-03-01T07:24:36;100763.00;;;3.10
20092;BMP180;10205;49.678;6.560;2023-03-01T07:27:03;100758.00;;;3.10
20092;BMP180;10205;49.678;6.560;2023-03-01T07:29:30;100750.00;;;3.10
20092;BMP180;10205;49.678;6.560;2023-03-01T07:31:57;100753.00;;;3.10
20092;BMP180;10205;49.678;6.560;2023-03-01T07:34:27;100758.00;;;3.10
20092;BMP180;10205;49.678;6.560;2023-03-01T07:36:54;100761.00;;;3.20
20092;BMP180;10205;49.678;6.560;2023-03-01T07:39:21;100757.00;;;3.20
20092;BMP180;10205;49.678;6.560;2023-03-01T07:41:51;100755.00;;;3.20
20092;BMP180;10205;49.678;6.560;2023-03-01T07:44:18;100753.00;;;3.20
20092;BMP180;10205;49.678;6.560;2023-03-01T07:46:45;100765.00;;;3.20
20092;BMP180;10205;49.678;6.560;2023-03-01T07:49:12;100765.00;;;3.20
20092;BMP180;10205;49.678;6.560;2023-03-01T07:51:39;100762.00;;;3.20
20092;BMP180;10205;49.678;6.560;2023-03-01T07:54:07;100762.00;;;3.20
20092;BMP180;10205;49.678;6.560;2023-03-01T07:56:35;100766.00;;;3.20
20092;BMP180;10205;49.678;6.560;2023-03-01T07:59:03;100766.00;;;3.20
20092;BMP180;10205;49.678;6.560;2023-03-01T08:01:30;100760.00;;;3.20
20092;BMP180;10205;49.678;6.560;2023-03-01T08:03:57;100761.00;;;3.20
20092;BMP180;10205;49.678;6.560;2023-03-01T08:06:24;100769.00;;;3.20
20092;BMP180;10205;49.678;6.560;2023-03-01T08:08:51;100750.00;;;3.20
20092;BMP180;10205;49.678;6.560;2023-03-01T08:11:21;100756.00;;;3.30
20092;BMP180;10205;49.678;6.560;2023-03-01T08:13:49;100741.00;;;3.30
20092;BMP180;10205;49.678;6.560;2023-03-01T08:16:17;100739.00;;;3.30
20092;BMP180;10205;49.678;6.560;2023-03-01T08:18:44;100745.00;;;3.30
20092;BMP180;10205;49.678;6.560;2023-03-01T08:21:14;100737.00;;;3.30
20092;BMP180;10205;49.678;6.560;2023-03-01T08:23:42;100736.00;;;3.30
20092;BMP180;10205;49.678;6.560;2023-03-01T08:26:11;100736.00;;;3.30
20092;BMP180;10205;49.678;6.560;2023-03-01T08:28:40;100744.00;;;3.30
20092;BMP180;10205;49.678;6.560;2023-03-01T08:31:17;100742.00;;;3.30
20092;BMP180;10205;49.678;6.560;2023-03-01T08:33:46;100745.00;;;3.30
20092;BMP180;10205;49.678;6.560;2023-03-01T08:36:17;100743.00;;;3.40
20092;BMP180;10205;49.678;6.560;2023-03-01T08:38:44;100735.00;;;3.40
20092;BMP180;10205;49.678;6.560;2023-03-01T08:41:11;100746.00;;;3.40
20092;BMP180;10205;49.678;6.560;2023-03-01T08:43:38;100737.00;;;3.40
20092;BMP180;10205;49.678;6.560;2023-03-01T08:46:05;100736.00;;;3.40
20092;BMP180;10205;49.678;6.560;2023-03-01T08:48:34;100733.00;;;3.40
20092;BMP180;10205;49.678;6.560;2023-03-01T08:51:08;100729.00;;;3.50
20092;BMP180;10205;49.678;6.560;2023-03-01T08:53:35;100720.00;;;3.50
20092;BMP180;10205;49.678;6.560;2023-03-01T08:56:02;100723.00;;;3.50
20092;BMP180;10205;49.678;6.560;2023-03-01T08:58:30;100730.00;;;3.60
20092;BMP180;10205;49.678;6.560;2023-03-01T09:00:58;100736.00;;;3.60
20092;BMP180;10205;49.678;6.560;2023-03-01T09:03:25;100718.00;;;3.70
20092;BMP180;10205;49.678;6.560;2023-03-01T09:06:00;100707.00;;;3.70
20092;BMP180;10205;49.678;6.560;2023-03-01T09:08:27;100697.00;;;3.80
20092;BMP180;10205;49.678;6.560;2023-03-01T09:10:54;100697.00;;;3.80
20092;BMP180;10205;49.678;6.560;2023-03-01T09:13:22;100686.00;;;3.90
20092;BMP180;10205;49.678;6.560;2023-03-01T09:15:50;100685.00;;;3.90
20092;BMP180;10205;49.678;6.560;2023-03-01T09:18:18;100692.00;;;4.00
20092;BMP180;10205;49.678;6.560;2023-03-01T09:20:45;100695.00;;;4.00
20092;BMP180;10205;49.678;6.560;2023-03-01T09:23:13;100682.00;;;4.10
20092;BMP180;10205;49.678;6.560;2023-03-01T09:25:40;100690.00;;;4.10
20092;BMP180;10205;49.678;6.560;2023-03-01T09:28:07;100690.00;;;4.20
20092;BMP180;10205;49.678;6.560;2023-03-01T09:30:36;100682.00;;;4.20
20092;BMP180;10205;49.678;6.560;2023-03-01T09:33:03;100669.00;;;4.30
20092;BMP180;10205;49.678;6.560;2023-03-01T09:35:33;100673.00;;;4.30
20092;BMP180;10205;49.678;6.560;2023-03-01T09:38:00;100682.00;;;4.40
20092;BMP180;10205;49.678;6.560;2023-03-01T09:40:29;100670.00;;;4.50
20092;BMP180;10205;49.678;6.560;2023-03-01T09:43:05;100663.00;;;4.60
20092;BMP180;10205;49.678;6.560;2023-03-01T09:45:35;100656.00;;;4.60
20092;BMP180;10205;49.678;6.560;2023-03-01T09:48:11;100656.00;;;4.70
20092;BMP180;10205;49.678;6.560;2023-03-01T09:50:42;100650.00;;;4.70
20092;BMP180;10205;49.678;6.560;2023-03-01T09:53:16;100662.00;;;4.80
20092;BMP180;10205;49.678;6.560;2023-03-01T09:55:49;100666.00;;;4.90
20092;BMP180;10205;49.678;6.560;2023-03-01T09:58:39;100661.00;;;5.00
20092;BMP180;10205;49.678;6.560;2023-03-01T10:01:26;100653.00;;;5.00
20092;BMP180;10205;49.678;6.560;2023-03-01T10:04:23;100659.00;;;5.10
20092;BMP180;10205;49.678;6.560;2023-03-01T10:07:05;100670.00;;;5.20
20092;BMP180;10205;49.678;6.560;2023-03-01T10:09:36;100655.00;;;5.20
20092;BMP180;10205;49.678;6.560;2023-03-01T10:12:12;100655.00;;;5.30
20092;BMP180;10205;49.678;6.560;2023-03-01T10:14:50;100656.00;;;5.40
20092;BMP180;10205;49.678;6.560;2023-03-01T10:17:27;100654.00;;;5.50
20092;BMP180;10205;49.678;6.560;2023-03-01T10:19:59;100640.00;;;5.60
20092;BMP180;10205;49.678;6.560;2023-03-01T10:22:32;100627.00;;;5.70
20092;BMP180;10205;49.678;6.560;2023-03-01T10:25:04;100633.00;;;5.80
20092;BMP180;10205;49.678;6.560;2023-03-01T10:27:44;100637.00;;;5.90
20092;BMP180;10205;49.678;6.560;2023-03-01T10:30:19;100619.00;;;5.90
20092;BMP180;10205;49.678;6.560;2023-03-01T10:32:50;100615.00;;;6.00
20092;BMP180;10205;49.678;6.560;2023-03-01T10:35:21;100611.00;;;6.10
20092;BMP180;10205;49.678;6.560;2023-03-01T10:38:03;100609.00;;;6.20
20092;BMP180;10205;49.678;6.560;2023-03-01T10:40:34;100607.00;;;6.20
20092;BMP180;10205;49.678;6.560;2023-03-01T10:43:05;100618.00;;;6.30
20092;BMP180;10205;49.678;6.560;2023-03-01T10:45:37;100606.00;;;6.40
20092;BMP180;10205;49.678;6.560;2023-03-01T10:48:12;100607.00;;;6.40
20092;BMP180;10205;49.678;6.560;2023-03-01T10:50:40;100602.00;;;6.50
20092;BMP180;10205;49.678;6.560;2023-03-01T10:53:26;100624.00;;;6.60
20092;BMP180;10205;49.678;6.560;2023-03-01T10:56:01;100611.00;;;6.70
20092;BMP180;10205;49.678;6.560;2023-03-01T10:58:32;100598.00;;;6.70
20092;BMP180;10205;49.678;6.560;2023-03-01T11:01:01;100588.00;;;6.80
20092;BMP180;10205;49.678;6.560;2023-03-01T11:03:31;100604.00;;;6.90
20092;BMP180;10205;49.678;6.560;2023-03-01T11:06:05;100592.00;;;7.00
20092;BMP180;10205;49.678;6.560;2023-03-01T11:08:40;100590.00;;;7.10
20092;BMP180;10205;49.678;6.560;2023-03-01T11:11:29;100596.00;;;7.10
20092;BMP180;10205;49.678;6.560;2023-03-01T11:14:03;100591.00;;;7.20
20092;BMP180;10205;49.678;6.560;2023-03-01T11:16:34;100591.00;;;7.20
20092;BMP180;10205;49.678;6.560;2023-03-01T11:19:19;100574.00;;;7.30
20092;BMP180;10205;49.678;6.560;2023-03-01T11:22:01;100567.00;;;7.40
20092;BMP180;10205;49.678;6.560;2023-03-01T11:24:37;100564.00;;;7.40
20092;BMP180;10205;49.678;6.560;2023-03-01T11:27:17;100558.00;;;7.50
20092;BMP180;10205;49.678;6.560;2023-03-01T11:29:52;100546.00;;;7.50
20092;BMP180;10205;49.678;6.560;2023-03-01T11:32:25;100558.00;;;7.60
20092;BMP180;10205;49.678;6.560;2023-03-01T11:34:59;100555.00;;;7.70
20092;BMP180;10205;49.678;6.560;2023-03-01T11:37:36;100537.00;;;7.70
20092;BMP180;10205;49.678;6.560;2023-03-01T11:40:23;100553.00;;;7.80
20092;BMP180;10205;49.678;6.560;2023-03-01T11:43:03;100534.00;;;7.80
20092;BMP180;10205;49.678;6.560;2023-03-01T11:45:49;100522.00;;;7.90
20092;BMP180;10205;49.678;6.560;2023-03-01T11:48:40;100522.00;;;8.00
20092;BMP180;10205;49.678;6.560;2023-03-01T11:51:20;100512.00;;;8.00
20092;BMP180;10205;49.678;6.560;2023-03-01T11:54:06;100495.00;;;8.10
20092;BMP180;10205;49.678;6.560;2023-03-01T11:56:41;100491.00;;;8.10
20092;BMP180;10205;49.678;6.560;2023-03-01T11:59:32;100490.00;;;8.20
20092;BMP180;10205;49.678;6.560;2023-03-01T12:02:36;100491.00;;;8.20
20092;BMP180;10205;49.678;6.560;2023-03-01T12:05:34;100506.00;;;8.30
20092;BMP180;10205;49.678;6.560;2023-03-01T12:08:12;100481.00;;;8.30
20092;BMP180;10205;49.678;6.560;2023-03-01T12:10:52;100474.00;;;8.40
20092;BMP180;10205;49.678;6.560;2023-03-01T12:17:21;100458.00;;;8.50
20092;BMP180;10205;49.678;6.560;2023-03-01T12:20:14;100466.00;;;8.60
20092;BMP180;10205;49.678;6.560;2023-03-01T12:22:59;100459.00;;;8.60
20092;BMP180;10205;49.678;6.560;2023-03-01T12:25:34;100456.00;;;8.70
20092;BMP180;10205;49.678;6.560;2023-03-01T12:28:21;100442.00;;;8.70
20092;BMP180;10205;49.678;6.560;2023-03-01T12:31:33;100440.00;;;8.80
20092;BMP180;10205;49.678;6.560;2023-03-01T12:34:16;100438.00;;;8.80
20092;BMP180;10205;49.678;6.560;2023-03-01T12:37:18;100417.00;;;8.90
20092;BMP180;10205;49.678;6.560;2023-03-01T12:40:03;100425.00;;;8.90
20092;BMP180;10205;49.678;6.560;2023-03-01T12:42:47;100416.00;;;8.90
20092;BMP180;10205;49.678;6.560;2023-03-01T12:45:43;100439.00;;;9.00
20092;BMP180;10205;49.678;6.560;2023-03-01T12:48:31;100422.00;;;9.00
20092;BMP180;10205;49.678;6.560;2023-03-01T12:51:08;100424.00;;;9.10
20092;BMP180;10205;49.678;6.560;2023-03-01T12:53:42;100417.00;;;9.10
20092;BMP180;10205;49.678;6.560;2023-03-01T12:56:15;100402.00;;;9.10
20092;BMP180;10205;49.678;6.560;2023-03-01T12:58:57;100403.00;;;9.20
20092;BMP180;10205;49.678;6.560;2023-03-01T13:01:39;100402.00;;;9.20
20092;BMP180;10205;49.678;6.560;2023-03-01T13:04:20;100392.00;;;9.20
20092;BMP180;10205;49.678;6.560;2023-03-01T13:07:02;100376.00;;;9.30
20092;BMP180;10205;49.678;6.560;2023-03-01T13:09:40;100387.00;;;9.30
20092;BMP180;10205;49.678;6.560;2023-03-01T13:12:45;100383.00;;;9.30
20092;BMP180;10205;49.678;6.560;2023-03-01T13:15:29;100378.00;;;9.30
20092;BMP180;10205;49.678;6.560;2023-03-01T13:17:58;100369.00;;;9.30
20092;BMP180;10205;49.678;6.560;2023-03-01T13:20:31;100370.00;;;9.30
20092;BMP180;10205;49.678;6.560;2023-03-01T13:23:24;100370.00;;;9.40
20092;BMP180;10205;49.678;6.560;2023-03-01T13:26:13;100392.00;;;9.40
20092;BMP180;10205;49.678;6.560;2023-03-01T13:29:01;100364.00;;;9.40
20092;BMP180;10205;49.678;6.560;2023-03-01T13:31:58;100360.00;;;9.40
20092;BMP180;10205;49.678;6.560;2023-03-01T13:35:00;100366.00;;;9.40
20092;BMP180;10205;49.678;6.560;2023-03-01T13:37:36;100373.00;;;9.40
20092;BMP180;10205;49.678;6.560;2023-03-01T13:43:40;100369.00;;;9.50
20092;BMP180;10205;49.678;6.560;2023-03-01T13:46:12;100358.00;;;9.50
20092;BMP180;10205;49.678;6.560;2023-03-01T13:48:45;100364.00;;;9.50
20092;BMP180;10205;49.678;6.560;2023-03-01T13:51:14;100365.00;;;9.50
20092;BMP180;10205;49.678;6.560;2023-03-01T13:53:46;100360.00;;;9.60
20092;BMP180;10205;49.678;6.560;2023-03-01T13:56:18;100361.00;;;9.60
20092;BMP180;10205;49.678;6.560;2023-03-01T13:58:56;100375.00;;;9.60
20092;BMP180;10205;49.678;6.560;2023-03-01T14:01:28;100365.00;;;9.70
20092;BMP180;10205;49.678;6.560;2023-03-01T14:03:56;100359.00;;;9.70
20092;BMP180;10205;49.678;6.560;2023-03-01T14:06:25;100352.00;;;9.70
20092;BMP180;10205;49.678;6.560;2023-03-01T14:09:05;100360.00;;;9.70
20092;BMP180;10205;49.678;6.560;2023-03-01T14:12:30;100344.00;;;9.80
20092;BMP180;10205;49.678;6.560;2023-03-01T14:15:09;100353.00;;;9.70
20092;BMP180;10205;49.678;6.560;2023-03-01T14:17:59;100339.00;;;9.80
20092;BMP180;10205;49.678;6.560;2023-03-01T14:20:32;100343.00;;;9.80
20092;BMP180;10205;49.678;6.560;2023-03-01T14:23:09;100337.00;;;9.80
20092;BMP180;10205;49.678;6.560;2023-03-01T14:25:38;100335.00;;;9.80
20092;BMP180;10205;49.678;6.560;2023-03-01T14:28:16;100334.00;;;9.80
20092;BMP180;10205;49.678;6.560;2023-03-01T14:30:47;100331.00;;;9.80
20092;BMP180;10205;49.678;6.560;2023-03-01T14:33:22;100333.00;;;9.80
20092;BMP180;10205;49.678;6.560;2023-03-01T14:35:57;100325.00;;;9.90
20092;BMP180;10205;49.678;6.560;2023-03-01T14:38:33;100323.00;;;9.90
20092;BMP180;10205;49.678;6.560;2023-03-01T14:41:08;100331.00;;;9.90
20092;BMP180;10205;49.678;6.560;2023-03-01T14:43:39;100314.00;;;9.90
20092;BMP180;10205;49.678;6.560;2023-03-01T14:46:19;100306.00;;;10.00
20092;BMP180;10205;49.678;6.560;2023-03-01T14:48:50;100318.00;;;10.00
20092;BMP180;10205;49.678;6.560;2023-03-01T14:51:17;100306.00;;;10.00
20092;BMP180;10205;49.678;6.560;2023-03-01T14:53:45;100313.00;;;10.00
20092;BMP180;10205;49.678;6.560;2023-03-01T14:56:16;100311.00;;;10.00
20092;BMP180;10205;49.678;6.560;2023-03-01T14:58:46;100307.00;;;10.10
20092;BMP180;10205;49.678;6.560;2023-03-01T15:01:19;100311.00;;;10.10
20092;BMP180;10205;49.678;6.560;2023-03-01T15:03:48;100315.00;;;10.10
20092;BMP180;10205;49.678;6.560;2023-03-01T15:06:19;100306.00;;;10.10
20092;BMP180;10205;49.678;6.560;2023-03-01T15:08:49;100301.00;;;10.10
20092;BMP180;10205;49.678;6.560;2023-03-01T15:11:21;100300.00;;;10.20
20092;BMP180;10205;49.678;6.560;2023-03-01T15:13:51;100300.00;;;10.20
20092;BMP180;10205;49.678;6.560;2023-03-01T15:16:23;100300.00;;;10.20
20092;BMP180;10205;49.678;6.560;2023-03-01T15:18:53;100296.00;;;10.20
20092;BMP180;10205;49.678;6.560;2023-03-01T15:21:23;100305.00;;;10.20
20092;BMP180;10205;49.678;6.560;2023-03-01T15:23:55;100317.00;;;10.20
20092;BMP180;10205;49.678;6.560;2023-03-01T15:26:42;100305.00;;;10.30
20092;BMP180;10205;49.678;6.560;2023-03-01T15:29:17;100304.00;;;10.30
20092;BMP180;10205;49.678;6.560;2023-03-01T15:31:56;100299.00;;;10.30
20092;BMP180;10205;49.678;6.560;2023-03-01T15:34:25;100288.00;;;10.30
20092;BMP180;10205;49.678;6.560;2023-03-01T15:36:55;100302.00;;;10.30
20092;BMP180;10205;49.678;6.560;2023-03-01T15:39:39;100292.00;;;10.30
20092;BMP180;10205;49.678;6.560;2023-03-01T15:42:12;100295.00;;;10.30
20092;BMP180;10205;49.678;6.560;2023-03-01T15:44:41;100315.00;;;10.30
20092;BMP180;10205;49.678;6.560;2023-03-01T15:47:28;100313.00;;;10.30
20092;BMP180;10205;49.678;6.560;2023-03-01T15:49:59;100309.00;;;10.30
20092;BMP180;10205;49.678;6.560;2023-03-01T15:52:32;100291.00;;;10.30
20092;BMP180;10205;49.678;6.560;2023-03-01T15:55:07;100293.00;;;10.30
20092;BMP180;10205;49.678;6.560;2023-03-01T15:57:43;100294.00;;;10.30
20092;BMP180;10205;49.678;6.560;2023-03-01T16:00:13;100288.00;;;10.30
20092;BMP180;10205;49.678;6.560;2023-03-01T16:02:43;100297.00;;;10.40
20092;BMP180;10205;49.678;6.560;2023-03-01T16:05:19;100288.00;;;10.40
20092;BMP180;10205;49.678;6.560;2023-03-01T16:07:46;100283.00;;;10.40
20092;BMP180;10205;49.678;6.560;2023-03-01T16:10:13;100287.00;;;10.40
20092;BMP180;10205;49.678;6.560;2023-03-01T16:12:40;100282.00;;;10.40
20092;BMP180;10205;49.678;6.560;2023-03-01T16:15:17;100288.00;;;10.40
20092;BMP180;10205;49.678;6.560;2023-03-01T16:17:47;100288.00;;;10.40
20092;BMP180;10205;49.678;6.560;2023-03-01T16:20:17;100289.00;;;10.40
20092;BMP180;10205;49.678;6.560;2023-03-01T16:22:46;100293.00;;;10.40
20092;BMP180;10205;49.678;6.560;2023-03-01T16:25:16;100292.00;;;10.40
20092;BMP180;10205;49.678;6.560;2023-03-01T16:27:44;100301.00;;;10.40
20092;BMP180;10205;49.678;6.560;2023-03-01T16:30:13;100291.00;;;10.40
20092;BMP180;10205;49.678;6.560;2023-03-01T16:32:42;100306.00;;;10.40
20092;BMP180;10205;49.678;6.560;2023-03-01T16:35:13;100297.00;;;10.40
20092;BMP180;10205;49.678;6.560;2023-03-01T16:37:41;100305.00;;;10.40
20092;BMP180;10205;49.678;6.560;2023-03-01T16:40:18;100307.00;;;10.40
20092;BMP180;10205;49.678;6.560;2023-03-01T16:42:46;100301.00;;;10.40
20092;BMP180;10205;49.678;6.560;2023-03-01T16:45:14;100307.00;;;10.40
20092;BMP180;10205;49.678;6.560;2023-03-01T16:47:41;100305.00;;;10.40
20092;BMP180;10205;49.678;6.560;2023-03-01T16:50:10;100298.00;;;10.40
20092;BMP180;10205;49.678;6.560;2023-03-01T16:52:38;100303.00;;;10.40
20092;BMP180;10205;49.678;6.560;2023-03-01T16:55:07;100310.00;;;10.40
20092;BMP180;10205;49.678;6.560;2023-03-01T16:57:36;100309.00;;;10.40
20092;BMP180;10205;49.678;6.560;2023-03-01T17:00:04;100332.00;;;10.40
20092;BMP180;10205;49.678;6.560;2023-03-01T17:02:33;100316.00;;;10.40
20092;BMP180;10205;49.678;6.560;2023-03-01T17:05:01;100330.00;;;10.30
20092;BMP180;10205;49.678;6.560;2023-03-01T17:07:30;100336.00;;;10.40
20092;BMP180;10205;49.678;6.560;2023-03-01T17:09:59;100339.00;;;10.40
20092;BMP180;10205;49.678;6.560;2023-03-01T17:12:26;100344.00;;;10.30
20092;BMP180;10205;49.678;6.560;2023-03-01T17:14:53;100339.00;;;10.30
20092;BMP180;10205;49.678;6.560;2023-03-01T17:17:20;100333.00;;;10.40
20092;BMP180;10205;49.678;6.560;2023-03-01T17:19:48;100334.00;;;10.40
20092;BMP180;10205;49.678;6.560;2023-03-01T17:22:15;100352.00;;;10.40